createdAt,value
2017-06-03T00:00:52.100Z,1013.33
2017-06-03T00:01:52.120Z,1013.3
2017-06-03T00:02:52.144Z,1013.3
2017-06-03T00:03:52.170Z,1013.29
2017-06-03T00:04:52.194Z,1013.28
2017-06-03T00:05:52.218Z,1013.32
2017-06-03T00:07:52.267Z,1013.29
2017-06-03T00:08:52.289Z,1013.31
2017-06-03T00:09:52.314Z,1013.31
2017-06-03T00:10:52.339Z,1013.37
2017-06-03T00:11:52.364Z,1013.31
2017-06-03T00:12:52.387Z,1013.34
2017-06-03T00:13:52.412Z,1013.35
2017-06-03T00:14:52.436Z,1013.38
2017-06-03T00:15:52.459Z,1013.37
2017-06-03T00:16:52.484Z,1013.37
2017-06-03T00:17:52.508Z,1013.35
2017-06-03T00:18:52.533Z,1013.33
2017-06-03T00:19:52.556Z,1013.33
2017-06-03T00:20:52.580Z,1013.31
2017-06-03T00:21:52.604Z,1013.29
2017-06-03T00:22:52.629Z,1013.35
2017-06-03T00:23:52.652Z,1013.32
2017-06-03T00:24:52.676Z,1013.31
2017-06-03T00:25:52.701Z,1013.29
2017-06-03T00:26:52.724Z,1013.32
2017-06-03T00:27:52.748Z,1013.27
2017-06-03T00:28:52.773Z,1013.3
2017-06-03T00:29:52.797Z,1013.23
2017-06-03T00:30:52.821Z,1013.23
2017-06-03T00:31:52.845Z,1013.27
2017-06-03T00:32:52.869Z,1013.28
2017-06-03T00:33:52.893Z,1013.26
2017-06-03T00:34:52.916Z,1013.3
2017-06-03T00:35:52.941Z,1013.27
2017-06-03T00:36:52.965Z,1013.29
2017-06-03T00:37:52.988Z,1013.26
2017-06-03T00:39:53.046Z,1013.27
2017-06-03T00:40:53.061Z,1013.28
2017-06-03T00:41:53.084Z,1013.27
2017-06-03T00:42:53.108Z,1013.23
2017-06-03T00:43:53.132Z,1013.25
2017-06-03T00:44:53.156Z,1013.22
2017-06-03T00:45:53.179Z,1013.23
2017-06-03T00:46:53.204Z,1013.26
2017-06-03T00:47:53.227Z,1013.24
2017-06-03T00:48:53.251Z,1013.22
2017-06-03T00:49:53.277Z,1013.25
2017-06-03T00:50:53.299Z,1013.23
2017-06-03T00:51:53.323Z,1013.27
2017-06-03T00:52:53.346Z,1013.25
2017-06-03T00:53:53.370Z,1013.24
2017-06-03T00:55:53.418Z,1013.28
2017-06-03T00:56:53.442Z,1013.24
2017-06-03T00:57:53.465Z,1013.26
2017-06-03T00:58:53.489Z,1013.19
2017-06-03T00:59:53.512Z,1013.24
2017-06-03T01:00:53.536Z,1013.24
2017-06-03T01:01:53.560Z,1013.2
2017-06-03T01:02:53.584Z,1013.21
2017-06-03T01:03:53.607Z,1013.19
2017-06-03T01:04:53.632Z,1013.22
2017-06-03T01:05:53.656Z,1013.18
2017-06-03T01:06:53.680Z,1013.18
2017-06-03T01:07:53.702Z,1013.16
2017-06-03T01:08:53.726Z,1013.16
2017-06-03T01:09:53.750Z,1013.15
2017-06-03T01:11:53.797Z,1013.1
2017-06-03T01:12:53.821Z,1013.1
2017-06-03T01:13:53.847Z,1013.1
2017-06-03T01:14:53.868Z,1013.07
2017-06-03T01:15:53.892Z,1013
2017-06-03T01:16:53.915Z,1013.06
2017-06-03T01:17:53.939Z,1013.04
2017-06-03T01:18:53.962Z,1013.08
2017-06-03T01:19:53.986Z,1013.07
2017-06-03T01:20:54.010Z,1013.08
2017-06-03T01:21:54.033Z,1013.08
2017-06-03T01:22:54.056Z,1013.06
2017-06-03T01:23:54.080Z,1013.03
2017-06-03T01:24:54.104Z,1013.07
2017-06-03T01:25:54.127Z,1013.04
2017-06-03T01:27:54.175Z,1013.04
2017-06-03T01:28:54.198Z,1013.08
2017-06-03T01:29:54.225Z,1013.06
2017-06-03T01:30:54.244Z,1013.12
2017-06-03T01:31:54.271Z,1013.09
2017-06-03T01:32:54.291Z,1013.1
2017-06-03T01:33:54.315Z,1013.1
2017-06-03T01:34:54.339Z,1013.04
2017-06-03T01:35:54.363Z,1013.04
2017-06-03T01:36:54.385Z,1013.02
2017-06-03T01:37:54.459Z,1013.03
2017-06-03T01:38:54.433Z,1013.02
2017-06-03T01:39:54.456Z,1013.05
2017-06-03T01:40:54.481Z,1013.02
2017-06-03T01:42:54.578Z,1013.01
2017-06-03T01:43:54.551Z,1012.97
2017-06-03T01:44:54.574Z,1012.98
2017-06-03T01:45:54.598Z,1012.99
2017-06-03T01:46:54.623Z,1012.95
2017-06-03T01:47:54.644Z,1012.98
2017-06-03T01:48:54.668Z,1013.01
2017-06-03T01:49:54.692Z,1012.99
2017-06-03T01:50:54.715Z,1012.95
2017-06-03T01:51:54.738Z,1012.96
2017-06-03T01:52:54.762Z,1012.93
2017-06-03T01:53:54.785Z,1012.97
2017-06-03T01:54:54.808Z,1012.98
2017-06-03T01:55:54.832Z,1012.99
2017-06-03T01:56:54.855Z,1012.99
2017-06-03T01:57:54.881Z,1012.98
2017-06-03T01:58:54.901Z,1012.96
2017-06-03T01:59:54.926Z,1012.96
2017-06-03T02:00:54.948Z,1012.97
2017-06-03T02:01:54.970Z,1012.96
2017-06-03T02:02:54.994Z,1012.93
2017-06-03T02:03:55.017Z,1012.93
2017-06-03T02:04:55.042Z,1012.96
2017-06-03T02:05:55.065Z,1012.92
2017-06-03T02:06:55.088Z,1012.93
2017-06-03T02:07:55.111Z,1012.93
2017-06-03T02:08:55.135Z,1012.95
2017-06-03T02:09:55.157Z,1013
2017-06-03T02:10:55.181Z,1012.93
2017-06-03T02:11:55.204Z,1012.95
2017-06-03T02:12:55.226Z,1012.94
2017-06-03T02:14:55.278Z,1012.88
2017-06-03T02:15:55.297Z,1012.89
2017-06-03T02:16:55.321Z,1012.9
2017-06-03T02:17:55.343Z,1012.92
2017-06-03T02:18:55.367Z,1012.9
2017-06-03T02:19:55.390Z,1012.91
2017-06-03T02:20:55.412Z,1012.87
2017-06-03T02:21:55.436Z,1012.9
2017-06-03T02:22:55.459Z,1012.86
2017-06-03T02:23:55.482Z,1012.86
2017-06-03T02:24:55.505Z,1012.83
2017-06-03T02:25:55.529Z,1012.86
2017-06-03T02:26:55.552Z,1012.85
2017-06-03T02:27:55.574Z,1012.79
2017-06-03T02:28:55.648Z,1012.81
2017-06-03T02:30:55.645Z,1012.83
2017-06-03T02:31:55.667Z,1012.81
2017-06-03T02:32:55.694Z,1012.78
2017-06-03T02:33:55.714Z,1012.79
2017-06-03T02:34:55.735Z,1012.77
2017-06-03T02:35:55.759Z,1012.74
2017-06-03T02:36:55.783Z,1012.74
2017-06-03T02:37:55.806Z,1012.72
2017-06-03T02:38:55.829Z,1012.69
2017-06-03T02:39:55.852Z,1012.71
2017-06-03T02:40:55.875Z,1012.74
2017-06-03T02:41:55.899Z,1012.75
2017-06-03T02:42:55.921Z,1012.74
2017-06-03T02:43:55.944Z,1012.77
2017-06-03T02:44:55.967Z,1012.75
2017-06-03T02:46:56.012Z,1012.75
2017-06-03T02:47:56.036Z,1012.75
2017-06-03T02:48:56.062Z,1012.7
2017-06-03T02:49:56.081Z,1012.7
2017-06-03T02:50:56.104Z,1012.7
2017-06-03T02:51:56.128Z,1012.68
2017-06-03T02:52:56.151Z,1012.72
2017-06-03T02:53:56.173Z,1012.65
2017-06-03T02:54:56.197Z,1012.66
2017-06-03T02:55:56.220Z,1012.62
2017-06-03T02:56:56.242Z,1012.62
2017-06-03T02:57:56.265Z,1012.62
2017-06-03T02:58:56.288Z,1012.58
2017-06-03T02:59:56.312Z,1012.58
2017-06-03T03:00:56.334Z,1012.57
2017-06-03T03:02:56.381Z,1012.57
2017-06-03T03:03:56.404Z,1012.58
2017-06-03T03:04:56.426Z,1012.56
2017-06-03T03:05:56.449Z,1012.6
2017-06-03T03:06:56.473Z,1012.59
2017-06-03T03:07:56.495Z,1012.6
2017-06-03T03:08:56.518Z,1012.6
2017-06-03T03:09:56.543Z,1012.6
2017-06-03T03:10:56.565Z,1012.6
2017-06-03T03:11:56.587Z,1012.57
2017-06-03T03:12:56.610Z,1012.56
2017-06-03T03:13:56.633Z,1012.6
2017-06-03T03:14:56.657Z,1012.56
2017-06-03T03:15:56.681Z,1012.59
2017-06-03T03:17:56.726Z,1012.57
2017-06-03T03:18:57.050Z,1012.57
2017-06-03T03:19:56.772Z,1012.57
2017-06-03T03:20:56.795Z,1012.54
2017-06-03T03:21:56.820Z,1012.55
2017-06-03T03:22:56.842Z,1012.57
2017-06-03T03:23:56.864Z,1012.54
2017-06-03T03:24:56.888Z,1012.55
2017-06-03T03:25:56.911Z,1012.5
2017-06-03T03:26:56.934Z,1012.56
2017-06-03T03:27:56.957Z,1012.48
2017-06-03T03:28:56.980Z,1012.55
2017-06-03T03:29:57.002Z,1012.51
2017-06-03T03:30:57.026Z,1012.55
2017-06-03T03:31:57.049Z,1012.54
2017-06-03T03:32:57.072Z,1012.61
2017-06-03T03:33:57.094Z,1012.63
2017-06-03T03:34:57.118Z,1012.62
2017-06-03T03:35:57.141Z,1012.64
2017-06-03T03:36:57.163Z,1012.72
2017-06-03T03:37:57.187Z,1012.68
2017-06-03T03:38:57.210Z,1012.71
2017-06-03T03:39:57.233Z,1012.72
2017-06-03T03:40:57.256Z,1012.73
2017-06-03T03:41:57.280Z,1012.77
2017-06-03T03:42:57.303Z,1012.8
2017-06-03T03:43:57.326Z,1012.81
2017-06-03T03:44:57.349Z,1012.76
2017-06-03T03:45:57.372Z,1012.84
2017-06-03T03:46:57.395Z,1012.77
2017-06-03T03:47:57.418Z,1012.81
2017-06-03T03:49:57.466Z,1012.84
2017-06-03T03:50:57.489Z,1012.84
2017-06-03T03:51:57.512Z,1012.8
2017-06-03T03:52:57.539Z,1012.79
2017-06-03T03:53:57.559Z,1012.77
2017-06-03T03:54:57.583Z,1012.81
2017-06-03T03:55:57.606Z,1012.78
2017-06-03T03:56:57.629Z,1012.8
2017-06-03T03:57:57.656Z,1012.8
2017-06-03T03:58:57.676Z,1012.86
2017-06-03T03:59:57.704Z,1012.88
2017-06-03T04:00:57.723Z,1012.93
2017-06-03T04:01:57.746Z,1012.97
2017-06-03T04:02:57.769Z,1012.96
2017-06-03T04:03:57.793Z,1012.97
2017-06-03T04:05:57.840Z,1012.97
2017-06-03T04:06:57.863Z,1013
2017-06-03T04:07:57.887Z,1013.03
2017-06-03T04:08:57.910Z,1013.04
2017-06-03T04:09:57.933Z,1013.2
2017-06-03T04:10:57.957Z,1013.33
2017-06-03T04:11:57.981Z,1013.36
2017-06-03T04:12:58.005Z,1013.37
2017-06-03T04:13:58.028Z,1013.43
2017-06-03T04:14:58.053Z,1013.44
2017-06-03T04:15:58.078Z,1013.39
2017-06-03T04:16:58.103Z,1013.19
2017-06-03T04:17:58.127Z,1013.16
2017-06-03T04:18:58.153Z,1013.17
2017-06-03T04:19:58.178Z,1013.15
2017-06-03T04:21:58.229Z,1013.27
2017-06-03T04:22:58.255Z,1013.27
2017-06-03T04:23:58.281Z,1013.3
2017-06-03T04:24:58.306Z,1013.39
2017-06-03T04:25:58.331Z,1013.41
2017-06-03T04:26:58.359Z,1013.42
2017-06-03T04:27:58.384Z,1013.44
2017-06-03T04:28:58.411Z,1013.44
2017-06-03T04:29:58.438Z,1013.42
2017-06-03T04:30:58.466Z,1013.35
2017-06-03T04:31:58.492Z,1013.37
2017-06-03T04:32:58.519Z,1013.44
2017-06-03T04:33:58.547Z,1013.41
2017-06-03T04:34:58.610Z,1013.42
2017-06-03T04:35:58.602Z,1013.4
2017-06-03T04:37:58.659Z,1013.41
2017-06-03T04:38:58.687Z,1013.39
2017-06-03T04:39:58.716Z,1013.35
2017-06-03T04:40:58.744Z,1013.36
2017-06-03T04:41:58.774Z,1013.34
2017-06-03T04:42:58.802Z,1013.32
2017-06-03T04:43:58.832Z,1013.34
2017-06-03T04:44:58.861Z,1013.34
2017-06-03T04:45:58.892Z,1013.34
2017-06-03T04:46:58.921Z,1013.36
2017-06-03T04:47:58.951Z,1013.33
2017-06-03T04:48:58.981Z,1013.25
2017-06-03T04:49:59.012Z,1013.26
2017-06-03T04:50:59.043Z,1013.24
2017-06-03T04:52:59.103Z,1013.24
2017-06-03T04:53:59.135Z,1013.23
2017-06-03T04:54:59.165Z,1013.19
2017-06-03T04:55:59.197Z,1013.16
2017-06-03T04:56:59.229Z,1013.05
2017-06-03T04:57:59.259Z,1013.06
2017-06-03T04:58:59.291Z,1013.09
2017-06-03T04:59:59.323Z,1013.08
2017-06-03T05:00:59.354Z,1013.13
2017-06-03T05:01:59.386Z,1013.08
2017-06-03T05:02:59.418Z,1013.09
2017-06-03T05:03:59.451Z,1013.06
2017-06-03T05:04:59.482Z,1013.07
2017-06-03T05:05:59.515Z,1013.08
2017-06-03T05:06:59.548Z,1013.06
2017-06-03T05:07:59.581Z,1013.12
2017-06-03T05:08:59.613Z,1013.09
2017-06-03T05:09:59.646Z,1013.11
2017-06-03T05:10:59.680Z,1013.12
2017-06-03T05:11:59.712Z,1013.08
2017-06-03T05:12:59.745Z,1013.11
2017-06-03T05:13:59.779Z,1013.1
2017-06-03T05:14:59.813Z,1013.11
2017-06-03T05:15:59.846Z,1013.14
2017-06-03T05:16:59.880Z,1013.17
2017-06-03T05:17:59.913Z,1013.15
2017-06-03T05:18:59.950Z,1013.13
2017-06-03T05:19:59.980Z,1013.23
2017-06-03T05:21:00.014Z,1013.15
2017-06-03T05:22:00.049Z,1013.16
2017-06-03T05:23:00.082Z,1013.15
2017-06-03T05:25:00.150Z,1013.15
2017-06-03T05:26:00.185Z,1013.21
2017-06-03T05:27:00.218Z,1013.25
2017-06-03T05:28:00.253Z,1013.15
2017-06-03T05:29:00.288Z,1013.08
2017-06-03T05:30:00.322Z,1013.23
2017-06-03T05:31:00.355Z,1013.19
2017-06-03T05:32:00.390Z,1013.21
2017-06-03T05:33:00.425Z,1013.17
2017-06-03T05:34:00.459Z,1013.18
2017-06-03T05:35:00.494Z,1013.15
2017-06-03T05:36:00.529Z,1013.23
2017-06-03T05:37:00.564Z,1013.2
2017-06-03T05:38:00.597Z,1013.22
2017-06-03T05:39:00.633Z,1013.23
2017-06-03T05:41:00.705Z,1013.24
2017-06-03T05:42:00.737Z,1013.24
2017-06-03T05:43:00.772Z,1013.25
2017-06-03T05:44:00.808Z,1013.31
2017-06-03T05:45:00.842Z,1013.27
2017-06-03T05:46:00.877Z,1013.28
2017-06-03T05:47:00.912Z,1013.29
2017-06-03T05:48:00.948Z,1013.35
2017-06-03T05:49:00.983Z,1013.3
2017-06-03T05:50:01.018Z,1013.32
2017-06-03T05:51:01.054Z,1013.3
2017-06-03T05:52:01.089Z,1013.33
2017-06-03T05:53:01.124Z,1013.27
2017-06-03T05:54:01.160Z,1013.31
2017-06-03T05:55:01.197Z,1013.34
2017-06-03T05:57:01.268Z,1013.33
2017-06-03T05:58:01.304Z,1013.32
2017-06-03T05:59:01.361Z,1013.32
2017-06-03T06:00:01.377Z,1013.26
2017-06-03T06:01:01.411Z,1013.24
2017-06-03T06:02:01.448Z,1013.21
2017-06-03T06:03:01.486Z,1013.13
2017-06-03T06:04:01.520Z,1013.09
2017-06-03T06:05:01.556Z,1013.02
2017-06-03T06:06:01.593Z,1013.03
2017-06-03T06:07:01.628Z,1013.06
2017-06-03T06:08:01.663Z,1013.06
2017-06-03T06:09:01.701Z,1013.05
2017-06-03T06:10:01.739Z,1013.06
2017-06-03T06:11:01.772Z,1013.06
2017-06-03T06:13:01.847Z,1013.11
2017-06-03T06:14:01.883Z,1013.16
2017-06-03T06:15:01.918Z,1013.14
2017-06-03T06:16:01.955Z,1013.22
2017-06-03T06:17:01.991Z,1013.26
2017-06-03T06:18:02.028Z,1013.32
2017-06-03T06:19:02.065Z,1013.33
2017-06-03T06:20:02.102Z,1013.39
2017-06-03T06:21:02.140Z,1013.42
2017-06-03T06:22:02.174Z,1013.46
2017-06-03T06:23:02.211Z,1013.51
2017-06-03T06:24:02.247Z,1013.61
2017-06-03T06:25:02.285Z,1013.64
2017-06-03T06:26:02.321Z,1013.63
2017-06-03T06:28:02.394Z,1013.6
2017-06-03T06:29:02.433Z,1013.56
2017-06-03T06:30:02.468Z,1013.57
2017-06-03T06:31:02.505Z,1013.51
2017-06-03T06:32:02.541Z,1013.48
2017-06-03T06:33:02.577Z,1013.51
2017-06-03T06:34:02.615Z,1013.53
2017-06-03T06:35:02.651Z,1013.52
2017-06-03T06:36:02.688Z,1013.48
2017-06-03T06:37:02.724Z,1013.42
2017-06-03T06:38:02.761Z,1013.44
2017-06-03T06:39:02.799Z,1013.45
2017-06-03T06:40:02.835Z,1013.42
2017-06-03T06:41:02.872Z,1013.45
2017-06-03T06:42:02.909Z,1013.39
2017-06-03T06:43:02.945Z,1013.47
2017-06-03T06:44:02.982Z,1013.48
2017-06-03T06:45:03.019Z,1013.5
2017-06-03T06:46:03.056Z,1013.49
2017-06-03T06:47:03.092Z,1013.52
2017-06-03T06:48:03.129Z,1013.55
2017-06-03T06:49:03.166Z,1013.55
2017-06-03T06:50:03.205Z,1013.56
2017-06-03T06:51:03.240Z,1013.56
2017-06-03T06:52:03.277Z,1013.52
2017-06-03T06:53:03.314Z,1013.54
2017-06-03T06:54:03.351Z,1013.51
2017-06-03T06:55:03.389Z,1013.5
2017-06-03T06:56:03.426Z,1013.52
2017-06-03T06:57:03.463Z,1013.53
2017-06-03T06:58:03.499Z,1013.6
2017-06-03T07:00:03.825Z,1013.61
2017-06-03T07:01:03.612Z,1013.53
2017-06-03T07:02:03.648Z,1013.49
2017-06-03T07:03:03.685Z,1013.57
2017-06-03T07:04:03.723Z,1013.52
2017-06-03T07:05:03.760Z,1013.54
2017-06-03T07:06:03.797Z,1013.43
2017-06-03T07:07:03.834Z,1013.24
2017-06-03T07:08:03.871Z,1013.23
2017-06-03T07:09:03.908Z,1013.54
2017-06-03T07:10:03.945Z,1013.64
2017-06-03T07:11:03.981Z,1013.63
2017-06-03T07:12:04.019Z,1013.78
2017-06-03T07:13:04.054Z,1013.79
2017-06-03T07:14:04.091Z,1013.86
2017-06-03T07:16:04.166Z,1013.89
2017-06-03T07:17:04.200Z,1013.89
2017-06-03T07:18:04.237Z,1013.92
2017-06-03T07:19:04.274Z,1013.92
2017-06-03T07:20:04.312Z,1013.98
2017-06-03T07:21:04.346Z,1013.96
2017-06-03T07:22:04.383Z,1013.83
2017-06-03T07:23:04.420Z,1013.68
2017-06-03T07:24:04.455Z,1013.67
2017-06-03T07:25:04.492Z,1013.72
2017-06-03T07:26:04.529Z,1013.59
2017-06-03T07:27:04.566Z,1013.76
2017-06-03T07:28:04.600Z,1013.51
2017-06-03T07:29:04.638Z,1013.42
2017-06-03T07:30:04.674Z,1013.52
2017-06-03T07:32:04.747Z,1013.64
2017-06-03T07:33:04.785Z,1013.59
2017-06-03T07:34:04.820Z,1012.96
2017-06-03T07:35:04.855Z,1012.88
2017-06-03T07:36:04.892Z,1012.65
2017-06-03T07:37:04.928Z,1012.53
2017-06-03T07:38:04.986Z,1012.63
2017-06-03T07:39:05.000Z,1012.56
2017-06-03T07:40:05.036Z,1012.41
2017-06-03T07:41:05.072Z,1012.41
2017-06-03T07:42:05.108Z,1012.46
2017-06-03T07:43:05.143Z,1012.49
2017-06-03T07:44:05.180Z,1012.5
2017-06-03T07:45:05.215Z,1012.53
2017-06-03T07:46:05.249Z,1012.52
2017-06-03T07:48:05.320Z,1012.57
2017-06-03T07:49:05.356Z,1012.59
2017-06-03T07:50:05.388Z,1012.55
2017-06-03T07:51:05.425Z,1012.56
2017-06-03T07:52:05.459Z,1012.61
2017-06-03T07:53:05.493Z,1012.86
2017-06-03T07:54:05.528Z,1012.84
2017-06-03T07:55:05.563Z,1012.84
2017-06-03T07:56:05.596Z,1012.58
2017-06-03T07:57:05.631Z,1012.58
2017-06-03T07:58:05.666Z,1012.65
2017-06-03T07:59:05.702Z,1012.58
2017-06-03T08:00:05.785Z,1012.56
2017-06-03T08:01:05.770Z,1012.44
2017-06-03T08:03:05.839Z,1012.72
2017-06-03T08:04:05.873Z,1012.74
2017-06-03T08:05:05.908Z,1012.48
2017-06-03T08:06:05.943Z,1012.61
2017-06-03T08:07:05.977Z,1012.43
2017-06-03T08:08:06.010Z,1012.37
2017-06-03T08:09:06.045Z,1012.28
2017-06-03T08:10:06.080Z,1012.35
2017-06-03T08:11:06.115Z,1012.54
2017-06-03T08:12:06.148Z,1012.45
2017-06-03T08:13:06.182Z,1012.6
2017-06-03T08:14:06.267Z,1012.41
2017-06-03T08:15:06.250Z,1012.54
2017-06-03T08:16:06.285Z,1012.35
2017-06-03T08:17:06.320Z,1012.66
2017-06-03T08:18:06.355Z,1012.5
2017-06-03T08:19:06.387Z,1012.47
2017-06-03T08:20:06.421Z,1012.69
2017-06-03T08:21:06.457Z,1012.65
2017-06-03T08:22:06.490Z,1012.59
2017-06-03T08:23:06.525Z,1012.64
2017-06-03T08:24:06.559Z,1012.55
2017-06-03T08:25:06.595Z,1012.4
2017-06-03T08:26:06.627Z,1012.68
2017-06-03T08:27:06.663Z,1012.45
2017-06-03T08:28:06.698Z,1012.54
2017-06-03T08:29:06.733Z,1012.55
2017-06-03T08:30:06.767Z,1012.43
2017-06-03T08:31:06.802Z,1012.56
2017-06-03T08:32:06.838Z,1012.5
2017-06-03T08:33:06.872Z,1012.58
2017-06-03T08:35:06.943Z,1012.31
2017-06-03T08:36:06.978Z,1012.24
2017-06-03T08:37:07.012Z,1012.52
2017-06-03T08:38:07.048Z,1012.36
2017-06-03T08:39:07.083Z,1012.48
2017-06-03T08:40:07.118Z,1012.33
2017-06-03T08:41:07.154Z,1012.49
2017-06-03T08:42:07.188Z,1012.31
2017-06-03T08:43:07.223Z,1012.44
2017-06-03T08:44:07.257Z,1012.55
2017-06-03T08:45:07.293Z,1012.13
2017-06-03T08:46:07.328Z,1012.22
2017-06-03T08:47:07.363Z,1012.27
2017-06-03T08:48:07.397Z,1012.19
2017-06-03T08:49:07.433Z,1012.17
2017-06-03T08:51:07.503Z,1012.14
2017-06-03T08:52:07.538Z,1012.06
2017-06-03T08:53:07.573Z,1011.98
2017-06-03T08:54:07.608Z,1011.93
2017-06-03T08:55:07.643Z,1012.03
2017-06-03T08:56:07.679Z,1012
2017-06-03T08:57:07.713Z,1012
2017-06-03T08:58:07.749Z,1011.98
2017-06-03T08:59:07.783Z,1011.96
2017-06-03T09:00:07.819Z,1011.96
2017-06-03T09:01:07.855Z,1011.95
2017-06-03T09:02:07.890Z,1011.93
2017-06-03T09:03:07.924Z,1011.89
2017-06-03T09:04:07.959Z,1011.9
2017-06-03T09:05:07.994Z,1011.89
2017-06-03T09:07:08.064Z,1011.86
2017-06-03T09:08:08.099Z,1011.86
2017-06-03T09:09:08.134Z,1011.84
2017-06-03T09:10:08.169Z,1011.85
2017-06-03T09:11:08.204Z,1011.81
2017-06-03T09:12:08.238Z,1011.83
2017-06-03T09:13:08.274Z,1011.81
2017-06-03T09:14:08.307Z,1011.77
2017-06-03T09:15:08.342Z,1011.74
2017-06-03T09:16:08.379Z,1011.7
2017-06-03T09:17:08.412Z,1011.7
2017-06-03T09:18:08.446Z,1011.65
2017-06-03T09:19:08.481Z,1011.67
2017-06-03T09:20:08.515Z,1011.69
2017-06-03T09:21:08.549Z,1011.65
2017-06-03T09:23:08.618Z,1011.66
2017-06-03T09:24:08.653Z,1011.65
2017-06-03T09:25:08.686Z,1011.66
2017-06-03T09:26:08.720Z,1011.67
2017-06-03T09:27:08.755Z,1011.61
2017-06-03T09:28:08.788Z,1011.65
2017-06-03T09:29:08.823Z,1011.62
2017-06-03T09:30:08.856Z,1011.64
2017-06-03T09:31:08.890Z,1011.62
2017-06-03T09:32:08.923Z,1011.59
2017-06-03T09:33:08.958Z,1011.57
2017-06-03T09:34:08.992Z,1011.6
2017-06-03T09:35:09.026Z,1011.62
2017-06-03T09:36:09.060Z,1011.6
2017-06-03T09:38:09.127Z,1011.55
2017-06-03T09:39:09.159Z,1011.52
2017-06-03T09:40:09.193Z,1011.52
2017-06-03T09:41:09.225Z,1011.54
2017-06-03T09:42:09.259Z,1011.51
2017-06-03T09:43:09.292Z,1011.46
2017-06-03T09:44:09.324Z,1011.49
2017-06-03T09:45:09.359Z,1011.54
2017-06-03T09:46:09.389Z,1011.5
2017-06-03T09:47:09.422Z,1011.52
2017-06-03T09:48:09.454Z,1011.51
2017-06-03T09:49:09.488Z,1011.46
2017-06-03T09:50:09.519Z,1011.45
2017-06-03T09:51:09.556Z,1011.44
2017-06-03T09:52:09.585Z,1011.45
2017-06-03T09:53:09.617Z,1011.41
2017-06-03T09:54:09.649Z,1011.4
2017-06-03T09:55:09.681Z,1011.41
2017-06-03T09:56:09.713Z,1011.42
2017-06-03T09:57:09.744Z,1011.4
2017-06-03T09:58:09.776Z,1011.46
2017-06-03T09:59:09.808Z,1011.46
2017-06-03T10:00:09.889Z,1011.45
2017-06-03T10:01:09.870Z,1011.49
2017-06-03T10:02:09.902Z,1011.51
2017-06-03T10:03:09.933Z,1011.52
2017-06-03T10:04:09.965Z,1011.53
2017-06-03T10:05:09.995Z,1011.53
2017-06-03T10:06:10.027Z,1011.52
2017-06-03T10:07:10.058Z,1011.53
2017-06-03T10:08:10.088Z,1011.5
2017-06-03T10:10:10.150Z,1011.46
2017-06-03T10:11:10.181Z,1011.48
2017-06-03T10:12:10.211Z,1011.5
2017-06-03T10:13:10.242Z,1011.54
2017-06-03T10:14:10.273Z,1011.5
2017-06-03T10:15:10.305Z,1011.52
2017-06-03T10:16:10.334Z,1011.52
2017-06-03T10:17:10.364Z,1011.53
2017-06-03T10:18:10.395Z,1011.51
2017-06-03T10:19:10.425Z,1011.51
2017-06-03T10:20:10.457Z,1011.52
2017-06-03T10:21:10.486Z,1011.52
2017-06-03T10:22:10.516Z,1011.51
2017-06-03T10:23:10.597Z,1011.52
2017-06-03T10:24:10.577Z,1011.51
2017-06-03T10:26:10.638Z,1011.52
2017-06-03T10:27:10.668Z,1011.55
2017-06-03T10:28:10.699Z,1011.51
2017-06-03T10:29:10.730Z,1011.54
2017-06-03T10:30:10.760Z,1011.56
2017-06-03T10:31:10.814Z,1011.53
2017-06-03T10:32:10.821Z,1011.52
2017-06-03T10:33:10.851Z,1011.54
2017-06-03T10:34:10.881Z,1011.54
2017-06-03T10:35:10.913Z,1011.52
2017-06-03T10:36:10.943Z,1011.5
2017-06-03T10:37:10.974Z,1011.51
2017-06-03T10:38:11.003Z,1011.54
2017-06-03T10:39:11.033Z,1011.56
2017-06-03T10:40:11.064Z,1011.52
2017-06-03T10:42:11.125Z,1011.52
2017-06-03T10:43:11.155Z,1011.46
2017-06-03T10:44:11.186Z,1011.48
2017-06-03T10:45:11.217Z,1011.47
2017-06-03T10:46:11.251Z,1011.44
2017-06-03T10:47:11.281Z,1011.45
2017-06-03T10:48:11.308Z,1011.42
2017-06-03T10:49:11.339Z,1011.44
2017-06-03T10:50:11.369Z,1011.43
2017-06-03T10:51:11.400Z,1011.48
2017-06-03T10:52:11.431Z,1011.46
2017-06-03T10:53:11.460Z,1011.44
2017-06-03T10:54:11.490Z,1011.46
2017-06-03T10:55:11.521Z,1011.5
2017-06-03T10:56:11.551Z,1011.46
2017-06-03T10:58:11.612Z,1011.47
2017-06-03T10:59:11.642Z,1011.46
2017-06-03T11:00:11.672Z,1011.48
2017-06-03T11:01:11.703Z,1011.5
2017-06-03T11:02:11.733Z,1011.45
2017-06-03T11:03:11.762Z,1011.45
2017-06-03T11:04:11.793Z,1011.48
2017-06-03T11:05:11.823Z,1011.49
2017-06-03T11:06:11.857Z,1011.47
2017-06-03T11:07:11.883Z,1011.44
2017-06-03T11:08:11.914Z,1011.38
2017-06-03T11:09:11.943Z,1011.36
2017-06-03T11:10:11.974Z,1011.36
2017-06-03T11:11:12.004Z,1011.31
2017-06-03T11:13:12.063Z,1011.28
2017-06-03T11:14:12.092Z,1011.27
2017-06-03T11:15:12.123Z,1011.29
2017-06-03T11:16:12.153Z,1011.23
2017-06-03T11:17:12.182Z,1011.27
2017-06-03T11:18:12.211Z,1011.21
2017-06-03T11:19:12.241Z,1011.22
2017-06-03T11:20:12.271Z,1011.19
2017-06-03T11:21:12.300Z,1011.19
2017-06-03T11:22:12.329Z,1011.2
2017-06-03T11:23:12.359Z,1011.22
2017-06-03T11:24:12.388Z,1011.23
2017-06-03T11:25:12.417Z,1011.23
2017-06-03T11:26:12.446Z,1011.18
2017-06-03T11:27:12.476Z,1011.16
2017-06-03T11:28:12.505Z,1011.2
2017-06-03T11:29:12.534Z,1011.19
2017-06-03T11:30:12.563Z,1011.21
2017-06-03T11:31:12.593Z,1011.25
2017-06-03T11:32:12.621Z,1011.24
2017-06-03T11:33:12.651Z,1011.26
2017-06-03T11:34:12.680Z,1011.23
2017-06-03T11:35:12.710Z,1011.27
2017-06-03T11:36:12.738Z,1011.23
2017-06-03T11:37:12.767Z,1011.21
2017-06-03T11:38:12.796Z,1011.21
2017-06-03T11:39:12.825Z,1011.18
2017-06-03T11:40:12.853Z,1011.23
2017-06-03T11:41:12.882Z,1011.22
2017-06-03T11:42:12.911Z,1011.16
2017-06-03T11:43:12.939Z,1011.17
2017-06-03T11:45:12.997Z,1011.08
2017-06-03T11:46:13.026Z,1011.08
2017-06-03T11:47:13.054Z,1011.1
2017-06-03T11:48:13.082Z,1011.06
2017-06-03T11:49:13.112Z,1011.05
2017-06-03T11:50:13.140Z,1011.07
2017-06-03T11:51:13.168Z,1011.06
2017-06-03T11:52:13.196Z,1011.06
2017-06-03T11:53:13.224Z,1011.04
2017-06-03T11:54:13.252Z,1011.07
2017-06-03T11:55:13.281Z,1011.04
2017-06-03T11:56:13.309Z,1011.04
2017-06-03T11:57:13.337Z,1010.99
2017-06-03T11:58:13.365Z,1011.01
2017-06-03T11:59:13.393Z,1011.01
2017-06-03T12:01:13.451Z,1010.97
2017-06-03T12:02:13.477Z,1010.94
2017-06-03T12:03:13.506Z,1010.92
2017-06-03T12:04:13.534Z,1010.91
2017-06-03T12:05:13.563Z,1010.88
2017-06-03T12:06:13.591Z,1010.84
2017-06-03T12:07:13.619Z,1010.85
2017-06-03T12:08:13.648Z,1010.86
2017-06-03T12:09:13.675Z,1010.88
2017-06-03T12:10:13.703Z,1010.86
2017-06-03T12:11:13.731Z,1010.85
2017-06-03T12:12:13.760Z,1010.82
2017-06-03T12:13:13.787Z,1010.78
2017-06-03T12:14:13.815Z,1010.8
2017-06-03T12:15:13.894Z,1010.75
2017-06-03T12:17:13.899Z,1010.75
2017-06-03T12:18:13.927Z,1010.71
2017-06-03T12:19:13.956Z,1010.69
2017-06-03T12:20:13.983Z,1010.69
2017-06-03T12:21:14.010Z,1010.66
2017-06-03T12:22:14.040Z,1010.64
2017-06-03T12:23:14.067Z,1010.64
2017-06-03T12:24:14.094Z,1010.63
2017-06-03T12:25:14.123Z,1010.65
2017-06-03T12:26:14.151Z,1010.61
2017-06-03T12:27:14.228Z,1010.61
2017-06-03T12:28:14.206Z,1010.63
2017-06-03T12:29:14.234Z,1010.62
2017-06-03T12:30:14.263Z,1010.63
2017-06-03T12:31:14.289Z,1010.61
2017-06-03T12:33:14.346Z,1010.63
2017-06-03T12:34:14.374Z,1010.67
2017-06-03T12:35:14.401Z,1010.68
2017-06-03T12:36:14.429Z,1010.61
2017-06-03T12:37:14.457Z,1010.64
2017-06-03T12:38:14.484Z,1010.64
2017-06-03T12:39:14.512Z,1010.63
2017-06-03T12:40:14.540Z,1010.64
2017-06-03T12:41:14.569Z,1010.62
2017-06-03T12:42:14.595Z,1010.64
2017-06-03T12:43:14.623Z,1010.64
2017-06-03T12:44:14.651Z,1010.65
2017-06-03T12:45:14.680Z,1010.63
2017-06-03T12:46:14.707Z,1010.6
2017-06-03T12:48:14.763Z,1010.6
2017-06-03T12:49:14.790Z,1010.56
2017-06-03T12:50:14.822Z,1010.53